createdAt,value
2018-06-28T00:04:53.882Z,20.40
2018-06-28T00:07:22.256Z,20.30
2018-06-28T00:09:50.747Z,20.30
2018-06-28T00:12:19.155Z,20.20
2018-06-28T00:14:47.603Z,20.20
2018-06-28T00:17:16.001Z,20.20
2018-06-28T00:19:44.427Z,20.20
2018-06-28T00:22:12.818Z,20.20
2018-06-28T00:24:41.249Z,20.10
2018-06-28T00:27:09.675Z,20.10
2018-06-28T00:29:38.093Z,20.10
2018-06-28T00:32:06.610Z,20.10
2018-06-28T00:34:35.036Z,20.10
2018-06-28T00:37:03.454Z,20.00
2018-06-28T00:39:31.849Z,19.90
2018-06-28T00:42:00.311Z,20.00
2018-06-28T00:44:28.819Z,19.90
2018-06-28T00:46:57.257Z,19.90
2018-06-28T00:49:25.632Z,19.80
2018-06-28T00:51:54.047Z,19.80
2018-06-28T00:54:22.486Z,19.80
2018-06-28T00:59:19.175Z,19.80
2018-06-28T01:01:47.609Z,19.80
2018-06-28T01:04:15.982Z,19.70
2018-06-28T01:06:44.471Z,19.60
2018-06-28T01:09:13.143Z,19.60
2018-06-28T01:11:41.904Z,19.60
2018-06-28T01:14:11.305Z,19.60
2018-06-28T01:16:39.716Z,19.60
2018-06-28T01:19:08.889Z,19.60
2018-06-28T01:21:37.341Z,19.60
2018-06-28T01:24:05.738Z,19.50
2018-06-28T01:26:34.369Z,19.50
2018-06-28T01:29:02.873Z,19.50
2018-06-28T01:31:31.269Z,19.50
2018-06-28T01:36:27.767Z,19.40
2018-06-28T01:38:56.437Z,19.40
2018-06-28T01:41:26.054Z,19.40
2018-06-28T01:43:54.477Z,19.30
2018-06-28T01:46:22.889Z,19.30
2018-06-28T01:48:51.338Z,19.20
2018-06-28T01:51:19.751Z,19.20
2018-06-28T01:53:48.187Z,19.20
2018-06-28T01:56:16.587Z,19.20
2018-06-28T02:01:13.299Z,19.10
2018-06-28T02:03:41.700Z,19.10
2018-06-28T02:06:10.134Z,19.10
2018-06-28T02:08:39.121Z,19.10
2018-06-28T02:13:35.647Z,19.10
2018-06-28T02:16:04.590Z,19.10
2018-06-28T02:18:32.987Z,19.00
2018-06-28T02:21:01.387Z,19.00
2018-06-28T02:23:29.762Z,18.90
2018-06-28T02:25:58.569Z,18.90
2018-06-28T02:28:27.017Z,18.90
2018-06-28T02:30:55.449Z,18.80
2018-06-28T02:35:51.992Z,18.80
2018-06-28T02:38:21.173Z,18.70
2018-06-28T02:40:49.579Z,18.70
2018-06-28T02:43:18.036Z,18.70
2018-06-28T02:45:46.393Z,18.60
2018-06-28T02:48:14.794Z,18.70
2018-06-28T02:50:43.188Z,18.70
2018-06-28T02:53:11.629Z,18.60
2018-06-28T02:55:40.034Z,18.60
2018-06-28T02:58:08.436Z,18.60
2018-06-28T03:00:36.819Z,18.50
2018-06-28T03:03:05.285Z,18.50
2018-06-28T03:05:33.701Z,18.50
2018-06-28T03:08:02.102Z,18.50
2018-06-28T03:10:30.559Z,18.40
2018-06-28T03:12:59.018Z,18.40
2018-06-28T03:15:27.459Z,18.40
2018-06-28T03:17:55.920Z,18.30
2018-06-28T03:22:52.395Z,18.30
2018-06-28T03:25:20.805Z,18.30
2018-06-28T03:27:49.329Z,18.30
2018-06-28T03:30:17.763Z,18.20
2018-06-28T03:32:46.205Z,18.20
2018-06-28T03:35:14.661Z,18.20
2018-06-28T03:37:43.072Z,18.20
2018-06-28T03:40:11.639Z,18.20
2018-06-28T03:45:08.121Z,18.10
2018-06-28T03:47:36.590Z,18.10
2018-06-28T03:50:05.039Z,18.10
2018-06-28T03:52:33.487Z,18.00
2018-06-28T03:55:01.941Z,18.00
2018-06-28T03:57:30.363Z,18.10
2018-06-28T03:59:58.774Z,18.10
2018-06-28T04:02:27.198Z,18.10
2018-06-28T04:04:56.057Z,18.00
2018-06-28T04:07:24.496Z,18.00
2018-06-28T04:09:52.904Z,18.10
2018-06-28T04:12:21.529Z,18.00
2018-06-28T04:14:50.081Z,18.00
2018-06-28T04:17:19.269Z,18.00
2018-06-28T04:19:47.649Z,18.00
2018-06-28T04:22:22.313Z,18.00
2018-06-28T04:24:50.934Z,18.10
2018-06-28T04:27:19.378Z,18.10
2018-06-28T04:29:47.795Z,18.10
2018-06-28T04:32:16.169Z,18.10
2018-06-28T04:34:44.583Z,18.10
2018-06-28T04:37:13.066Z,18.10
2018-06-28T04:39:41.454Z,18.10
2018-06-28T04:42:09.886Z,18.10
2018-06-28T04:44:38.333Z,18.10
2018-06-28T04:47:06.818Z,18.10
2018-06-28T04:49:35.448Z,18.10
2018-06-28T04:52:03.857Z,18.20
2018-06-28T04:54:32.445Z,18.20
2018-06-28T04:57:00.897Z,18.20
2018-06-28T04:59:29.310Z,18.20
2018-06-28T05:01:57.709Z,18.20
2018-06-28T05:04:26.073Z,18.20
2018-06-28T05:06:54.478Z,18.30
2018-06-28T05:09:22.854Z,18.30
2018-06-28T05:11:51.246Z,18.40
2018-06-28T05:14:19.681Z,18.40
2018-06-28T05:16:48.074Z,18.40
2018-06-28T05:19:16.479Z,18.40
2018-06-28T05:21:44.898Z,18.50
2018-06-28T05:24:13.394Z,18.60
2018-06-28T05:26:41.885Z,18.60
2018-06-28T05:29:11.035Z,18.60
2018-06-28T05:31:39.423Z,18.60
2018-06-28T05:34:07.857Z,18.70
2018-06-28T05:36:36.325Z,18.80
2018-06-28T05:39:07.539Z,18.80
2018-06-28T05:41:35.996Z,18.90
2018-06-28T05:44:05.804Z,18.90
2018-06-28T05:46:34.264Z,19.00
2018-06-28T05:49:02.722Z,19.00
2018-06-28T05:51:31.158Z,19.10
2018-06-28T05:56:27.724Z,19.30
2018-06-28T05:58:56.208Z,19.50
2018-06-28T06:01:24.645Z,19.50
2018-06-28T06:03:53.053Z,19.70
2018-06-28T06:06:21.495Z,19.80
2018-06-28T06:08:49.923Z,20.00
2018-06-28T06:11:18.354Z,20.20
2018-06-28T06:13:46.775Z,20.30
2018-06-28T06:16:15.241Z,20.50
2018-06-28T06:18:43.649Z,20.60
2018-06-28T06:21:12.111Z,20.70
2018-06-28T06:23:40.525Z,20.90
2018-06-28T06:26:08.936Z,21.10
2018-06-28T06:28:37.361Z,21.30
2018-06-28T06:31:06.042Z,21.40
2018-06-28T06:33:34.452Z,21.60
2018-06-28T06:36:02.941Z,21.80
2018-06-28T06:40:59.411Z,22.40
2018-06-28T06:43:28.204Z,22.60
2018-06-28T06:45:56.613Z,22.70
2018-06-28T06:48:25.029Z,22.90
2018-06-28T06:50:53.442Z,23.00
2018-06-28T06:53:21.889Z,23.00
2018-06-28T06:55:50.449Z,23.20
2018-06-28T06:58:18.910Z,23.50
2018-06-28T07:00:47.333Z,23.90
2018-06-28T07:03:15.742Z,23.90
2018-06-28T07:05:44.160Z,24.20
2018-06-28T07:08:12.646Z,24.30
2018-06-28T07:10:41.017Z,24.50
2018-06-28T07:13:09.463Z,24.80
2018-06-28T07:15:37.926Z,24.90
2018-06-28T07:18:06.351Z,24.90
2018-06-28T07:20:34.757Z,25.10
2018-06-28T07:23:03.250Z,25.20
2018-06-28T07:25:31.706Z,25.10
2018-06-28T07:28:00.131Z,25.20
2018-06-28T07:30:28.526Z,25.50
2018-06-28T07:32:56.911Z,25.80
2018-06-28T07:35:25.373Z,26.10
2018-06-28T07:37:53.845Z,26.40
2018-06-28T07:40:22.329Z,26.50
2018-06-28T07:42:51.190Z,26.40
2018-06-28T07:45:19.625Z,26.30
2018-06-28T07:47:48.088Z,26.60
2018-06-28T07:50:16.520Z,27.20
2018-06-28T07:52:44.938Z,27.40
2018-06-28T07:55:13.333Z,27.20
2018-06-28T07:57:41.744Z,27.20
2018-06-28T08:00:10.134Z,27.20
2018-06-28T08:02:39.311Z,27.20
2018-06-28T08:07:35.896Z,27.80
2018-06-28T08:10:04.337Z,28.00
2018-06-28T08:12:33.051Z,28.00
2018-06-28T08:15:01.487Z,28.10
2018-06-28T08:17:29.887Z,28.20
2018-06-28T08:19:58.290Z,28.50
2018-06-28T08:22:26.705Z,28.60
2018-06-28T08:24:55.105Z,28.70
2018-06-28T08:27:23.498Z,28.60
2018-06-28T08:29:51.963Z,28.80
2018-06-28T08:32:20.416Z,29.20
2018-06-28T08:34:48.829Z,29.30
2018-06-28T08:37:17.253Z,29.40
2018-06-28T08:42:13.934Z,29.50
2018-06-28T08:44:42.354Z,29.70
2018-06-28T08:47:10.780Z,29.60
2018-06-28T08:49:39.184Z,30.00
2018-06-28T08:52:07.646Z,29.90
2018-06-28T08:54:36.104Z,30.00
2018-06-28T08:57:05.508Z,30.30
2018-06-28T09:02:02.611Z,30.30
2018-06-28T09:04:31.455Z,30.40
2018-06-28T09:06:59.869Z,30.60
2018-06-28T09:09:28.317Z,30.50
2018-06-28T09:11:56.822Z,30.30
2018-06-28T09:14:25.240Z,30.50
2018-06-28T09:16:53.650Z,30.70
2018-06-28T09:19:22.034Z,30.80
2018-06-28T09:21:50.491Z,30.90
2018-06-28T09:24:18.889Z,30.80
2018-06-28T09:26:47.300Z,31.00
2018-06-28T09:29:15.722Z,31.20
2018-06-28T09:31:44.117Z,31.30
2018-06-28T09:34:12.509Z,31.50
2018-06-28T09:36:40.943Z,31.60
2018-06-28T09:39:10.662Z,31.10
2018-06-28T09:41:39.101Z,31.20
2018-06-28T09:44:07.506Z,31.40
2018-06-28T09:46:35.921Z,31.50
2018-06-28T09:49:04.386Z,31.80
2018-06-28T09:51:32.870Z,31.80
2018-06-28T09:54:01.273Z,31.80
2018-06-28T09:56:30.317Z,31.70
2018-06-28T09:58:58.706Z,32.00
2018-06-28T10:01:27.078Z,31.60
2018-06-28T10:03:55.458Z,31.60
2018-06-28T10:06:23.932Z,31.80
2018-06-28T10:08:52.325Z,32.20
2018-06-28T10:11:20.759Z,32.40
2018-06-28T10:13:49.216Z,32.50
2018-06-28T10:16:17.677Z,32.80
2018-06-28T10:21:14.429Z,33.00
2018-06-28T10:23:42.829Z,32.70
2018-06-28T10:26:11.243Z,32.50
2018-06-28T10:28:40.289Z,32.70
2018-06-28T10:31:08.738Z,33.20
2018-06-28T10:33:37.171Z,33.10
2018-06-28T10:36:06.184Z,32.20
2018-06-28T10:38:34.642Z,32.30
2018-06-28T10:43:31.190Z,32.80
2018-06-28T10:45:59.647Z,32.40
2018-06-28T10:48:28.185Z,32.40
2018-06-28T10:50:56.601Z,32.70
2018-06-28T10:53:25.175Z,33.30
2018-06-28T10:55:53.757Z,33.30
2018-06-28T10:58:22.173Z,33.50
2018-06-28T11:00:50.617Z,33.60
2018-06-28T11:03:19.034Z,33.60
2018-06-28T11:05:47.989Z,33.40
2018-06-28T11:08:16.410Z,33.70
2018-06-28T11:10:44.798Z,33.50
2018-06-28T11:13:13.196Z,33.50
2018-06-28T11:15:41.640Z,33.50
2018-06-28T11:18:10.105Z,33.60
2018-06-28T11:20:39.205Z,33.90
2018-06-28T11:23:07.614Z,33.60
2018-06-28T11:25:35.993Z,33.80
2018-06-28T11:28:04.536Z,33.40
2018-06-28T11:30:32.958Z,32.40
2018-06-28T11:33:01.355Z,31.60
2018-06-28T11:35:29.788Z,32.10
2018-06-28T11:37:58.211Z,32.80
2018-06-28T11:42:54.717Z,33.70
2018-06-28T11:45:23.110Z,33.60
2018-06-28T11:47:52.378Z,33.90
2018-06-28T11:50:20.818Z,33.40
2018-06-28T11:52:49.190Z,33.40
2018-06-28T11:55:17.675Z,33.70
2018-06-28T11:57:46.085Z,33.50
2018-06-28T12:00:14.492Z,33.50
2018-06-28T12:02:42.890Z,33.30
2018-06-28T12:05:12.093Z,32.30
2018-06-28T12:07:40.569Z,32.90
2018-06-28T12:10:08.983Z,33.20
2018-06-28T12:12:37.461Z,32.90
2018-06-28T12:15:05.887Z,32.50
2018-06-28T12:17:34.324Z,32.10
2018-06-28T12:20:03.689Z,31.70
2018-06-28T12:22:32.110Z,31.80
2018-06-28T12:25:00.643Z,32.60
2018-06-28T12:27:29.078Z,32.60
2018-06-28T12:29:57.453Z,32.90
2018-06-28T12:32:25.902Z,33.60
2018-06-28T12:34:54.308Z,33.80
2018-06-28T12:37:22.808Z,32.80
2018-06-28T12:39:54.136Z,31.90
2018-06-28T12:42:22.590Z,32.50
2018-06-28T12:44:51.010Z,32.30
2018-06-28T12:47:41.331Z,31.70
2018-06-28T12:50:09.810Z,32.10
2018-06-28T12:53:01.680Z,32.90
2018-06-28T12:56:35.561Z,32.60
2018-06-28T12:59:06.301Z,32.20
2018-06-28T13:01:34.773Z,31.10
2018-06-28T13:04:03.359Z,31.30
2018-06-28T13:06:31.791Z,32.10
2018-06-28T13:09:00.858Z,32.80
2018-06-28T13:11:29.516Z,33.40
2018-06-28T13:13:57.994Z,33.40
2018-06-28T13:16:28.159Z,33.20
2018-06-28T13:18:56.612Z,32.60
2018-06-28T13:23:53.249Z,31.30
2018-06-28T13:26:21.710Z,31.10
2018-06-28T13:28:50.138Z,31.40
2018-06-28T13:31:18.528Z,32.20
2018-06-28T13:33:47.038Z,32.70
2018-06-28T13:36:15.464Z,33.00
2018-06-28T13:38:43.913Z,32.90
2018-06-28T13:41:13.308Z,32.10
2018-06-28T13:43:42.259Z,31.70
2018-06-28T13:46:10.807Z,31.80
2018-06-28T13:48:39.275Z,32.40
2018-06-28T13:51:07.748Z,32.80
2018-06-28T13:53:36.122Z,32.30
2018-06-28T13:56:04.712Z,31.70
2018-06-28T13:58:33.151Z,31.20
2018-06-28T14:01:01.575Z,30.90
2018-06-28T14:03:29.995Z,31.10
2018-06-28T14:05:58.420Z,31.60
2018-06-28T14:08:26.883Z,31.90
2018-06-28T14:10:55.284Z,32.10
2018-06-28T14:13:23.709Z,32.10
2018-06-28T14:15:52.133Z,31.70
2018-06-28T14:18:20.553Z,31.60
2018-06-28T14:20:48.978Z,32.20
2018-06-28T14:23:17.392Z,32.50
2018-06-28T14:25:45.954Z,32.30
2018-06-28T14:28:14.445Z,31.60
2018-06-28T14:30:42.854Z,31.10
2018-06-28T14:33:11.237Z,30.70
2018-06-28T14:35:39.683Z,30.80
2018-06-28T14:38:08.189Z,30.50
2018-06-28T14:40:36.559Z,30.90
2018-06-28T14:45:33.168Z,31.70
2018-06-28T14:48:01.594Z,32.10
2018-06-28T14:50:30.027Z,32.30
2018-06-28T14:52:58.450Z,32.00
2018-06-28T14:57:54.975Z,31.40
2018-06-28T15:00:23.383Z,31.40
2018-06-28T15:02:51.810Z,31.70
2018-06-28T15:05:20.239Z,31.40
2018-06-28T15:07:48.665Z,31.60
2018-06-28T15:10:17.310Z,31.70
2018-06-28T15:12:45.829Z,31.70
2018-06-28T15:15:14.222Z,31.80
2018-06-28T15:17:42.692Z,31.90
2018-06-28T15:20:11.775Z,31.30
2018-06-28T15:22:40.179Z,30.70
2018-06-28T15:25:08.642Z,30.50
2018-06-28T15:27:37.078Z,30.20
2018-06-28T15:30:05.537Z,30.30
2018-06-28T15:32:33.946Z,30.60
2018-06-28T15:35:02.462Z,30.50
2018-06-28T15:39:59.778Z,30.70
2018-06-28T15:42:28.281Z,30.80
2018-06-28T15:44:56.705Z,30.60
2018-06-28T15:47:25.206Z,30.40
2018-06-28T15:49:54.115Z,30.30
2018-06-28T15:52:22.530Z,30.30
2018-06-28T15:54:51.091Z,30.50
2018-06-28T15:57:19.680Z,30.50
2018-06-28T15:59:48.086Z,30.60
2018-06-28T16:02:16.508Z,30.50
2018-06-28T16:04:44.926Z,30.50
2018-06-28T16:07:13.441Z,30.50
2018-06-28T16:09:41.877Z,30.40
2018-06-28T16:12:10.361Z,30.40
2018-06-28T16:14:38.749Z,30.20
2018-06-28T16:17:07.185Z,30.20
2018-06-28T16:19:35.603Z,30.20
2018-06-28T16:22:04.125Z,30.30
2018-06-28T16:24:32.664Z,30.30
2018-06-28T16:27:01.122Z,30.20
2018-06-28T16:29:29.505Z,29.80
2018-06-28T16:31:57.965Z,29.60
2018-06-28T16:36:54.674Z,29.40
2018-06-28T16:39:23.111Z,29.30
2018-06-28T16:44:19.638Z,29.40
2018-06-28T16:46:48.074Z,29.50
2018-06-28T16:49:16.518Z,29.50
2018-06-28T16:51:44.931Z,29.40
2018-06-28T16:54:13.535Z,29.30
2018-06-28T16:56:42.011Z,29.20
2018-06-28T16:59:10.884Z,29.00
2018-06-28T17:01:39.311Z,29.00
2018-06-28T17:04:07.768Z,29.10
2018-06-28T17:06:36.201Z,29.00
2018-06-28T17:09:06.641Z,29.00
2018-06-28T17:11:35.072Z,29.10
2018-06-28T17:14:03.656Z,29.00
2018-06-28T17:16:32.825Z,29.00
2018-06-28T17:19:01.317Z,29.00
2018-06-28T17:21:29.762Z,28.90
2018-06-28T17:23:58.209Z,28.90
2018-06-28T17:26:26.649Z,28.80
2018-06-28T17:28:55.358Z,28.70
2018-06-28T17:31:23.783Z,28.60
2018-06-28T17:33:52.176Z,28.60
2018-06-28T17:36:20.681Z,28.60
2018-06-28T17:38:49.105Z,28.50
2018-06-28T17:41:17.640Z,28.50
2018-06-28T17:43:46.232Z,28.50
2018-06-28T17:46:14.815Z,28.30
2018-06-28T17:48:43.284Z,28.20
2018-06-28T17:51:11.747Z,28.10
2018-06-28T17:53:40.138Z,28.10
2018-06-28T17:56:09.029Z,27.90
2018-06-28T17:58:37.454Z,27.90
2018-06-28T18:01:05.899Z,27.80
2018-06-28T18:03:34.349Z,27.80
2018-06-28T18:06:02.834Z,27.60
2018-06-28T18:08:31.228Z,27.40
2018-06-28T18:10:59.634Z,27.40
2018-06-28T18:13:28.027Z,27.40
2018-06-28T18:15:56.540Z,27.40
2018-06-28T18:18:24.926Z,27.40
2018-06-28T18:20:53.404Z,27.40
2018-06-28T18:23:21.803Z,27.40
2018-06-28T18:25:50.645Z,27.40
2018-06-28T18:28:19.140Z,27.40
2018-06-28T18:30:47.525Z,27.30
2018-06-28T18:33:15.909Z,27.30
2018-06-28T18:35:44.331Z,27.30
2018-06-28T18:38:12.771Z,27.20
2018-06-28T18:43:09.383Z,27.20
2018-06-28T18:45:37.834Z,27.10
2018-06-28T18:48:06.814Z,27.10
2018-06-28T18:50:35.378Z,27.00
2018-06-28T18:53:03.751Z,26.90
2018-06-28T18:55:32.129Z,26.90
2018-06-28T18:58:00.573Z,26.80
2018-06-28T19:00:29.061Z,26.80
2018-06-28T19:02:57.504Z,26.70
2018-06-28T19:05:25.870Z,26.60
2018-06-28T19:07:54.293Z,26.60
2018-06-28T19:10:28.084Z,26.60
2018-06-28T19:12:56.585Z,26.50
2018-06-28T19:15:30.388Z,26.40
2018-06-28T19:17:58.823Z,26.40
2018-06-28T19:20:27.242Z,26.40
2018-06-28T19:24:02.551Z,26.40
2018-06-28T19:26:31.070Z,26.30
2018-06-28T19:29:03.686Z,26.30
2018-06-28T19:31:37.462Z,26.20
2018-06-28T19:34:06.103Z,26.10
2018-06-28T19:36:34.705Z,26.10
2018-06-28T19:39:08.469Z,26.00
2018-06-28T19:41:42.234Z,26.00
2018-06-28T19:44:10.657Z,26.00
2018-06-28T19:46:39.079Z,25.90
2018-06-28T19:49:11.720Z,25.80
2018-06-28T19:51:45.321Z,25.80
2018-06-28T19:54:13.833Z,25.70
2018-06-28T19:56:42.166Z,25.70
2018-06-28T19:59:10.561Z,25.70
2018-06-28T20:01:44.426Z,25.60
2018-06-28T20:04:13.702Z,25.50
2018-06-28T20:06:43.610Z,25.50
2018-06-28T20:09:12.483Z,25.50
2018-06-28T20:11:41.634Z,25.40
2018-06-28T20:14:15.310Z,25.40
2018-06-28T20:19:22.520Z,25.30
2018-06-28T20:21:50.941Z,25.20
2018-06-28T20:24:19.399Z,25.10
2018-06-28T20:26:53.141Z,25.10
2018-06-28T20:29:26.805Z,25.10
2018-06-28T20:34:05.890Z,25.00
2018-06-28T20:36:34.311Z,25.00
2018-06-28T20:39:02.715Z,24.90
2018-06-28T20:41:31.158Z,24.80
2018-06-28T20:43:59.532Z,24.70
2018-06-28T20:46:28.033Z,24.70
2018-06-28T20:48:56.441Z,24.70
2018-06-28T20:51:24.943Z,24.60
2018-06-28T20:53:53.317Z,24.60
2018-06-28T20:56:21.716Z,24.60
2018-06-28T20:58:50.173Z,24.50
2018-06-28T21:01:18.610Z,24.50
2018-06-28T21:03:47.038Z,24.50
2018-06-28T21:06:15.450Z,24.40
2018-06-28T21:08:43.888Z,24.30
2018-06-28T21:11:12.312Z,24.30
2018-06-28T21:13:40.735Z,24.30
2018-06-28T21:16:10.408Z,24.20
2018-06-28T21:18:38.843Z,24.10
2018-06-28T21:21:07.982Z,24.00
2018-06-28T21:23:36.403Z,24.00
2018-06-28T21:26:05.073Z,23.90
2018-06-28T21:28:33.487Z,23.90
2018-06-28T21:31:02.626Z,23.90
2018-06-28T21:33:31.016Z,23.90
2018-06-28T21:36:00.010Z,23.80
2018-06-28T21:38:28.484Z,23.70
2018-06-28T21:40:56.959Z,23.70
2018-06-28T21:43:25.402Z,23.60
2018-06-28T21:45:53.920Z,23.70
2018-06-28T21:48:22.398Z,23.60
2018-06-28T21:50:50.881Z,23.60
2018-06-28T21:53:19.303Z,23.50
2018-06-28T21:55:47.805Z,23.40
2018-06-28T21:58:16.188Z,23.40
2018-06-28T22:03:12.709Z,23.30
2018-06-28T22:05:41.081Z,23.20
2018-06-28T22:08:09.499Z,23.20
2018-06-28T22:10:37.894Z,23.20
2018-06-28T22:13:06.366Z,23.20
2018-06-28T22:15:34.778Z,23.10
2018-06-28T22:18:04.218Z,23.10
2018-06-28T22:20:33.403Z,23.00
2018-06-28T22:23:01.834Z,23.00
2018-06-28T22:25:30.920Z,23.00
2018-06-28T22:27:59.359Z,23.00
2018-06-28T22:30:27.793Z,22.90
2018-06-28T22:32:56.192Z,22.90
2018-06-28T22:35:24.594Z,22.80
2018-06-28T22:37:53.250Z,22.80
2018-06-28T22:40:21.650Z,22.80
2018-06-28T22:42:50.193Z,22.80
2018-06-28T22:45:18.589Z,22.70
2018-06-28T22:47:47.009Z,22.60
2018-06-28T22:50:15.357Z,22.60
2018-06-28T22:52:43.879Z,22.60
2018-06-28T22:55:12.289Z,22.60
2018-06-28T22:57:40.727Z,22.60
2018-06-28T23:00:09.198Z,22.50
2018-06-28T23:02:37.930Z,22.50
2018-06-28T23:05:06.369Z,22.40
2018-06-28T23:07:34.788Z,22.40
2018-06-28T23:10:03.193Z,22.30
2018-06-28T23:12:31.555Z,22.30
2018-06-28T23:15:00.036Z,22.20
2018-06-28T23:17:28.382Z,22.20
2018-06-28T23:19:56.897Z,22.20
2018-06-28T23:22:49.581Z,22.10
2018-06-28T23:25:18.276Z,22.10
2018-06-28T23:27:47.477Z,22.00
2018-06-28T23:30:16.265Z,21.90
2018-06-28T23:32:44.687Z,21.90
2018-06-28T23:35:13.085Z,21.90
2018-06-28T23:37:41.457Z,21.80
2018-06-28T23:40:09.877Z,21.80
2018-06-28T23:42:38.949Z,21.80
2018-06-28T23:45:07.929Z,21.80
2018-06-28T23:47:36.350Z,21.70
2018-06-28T23:50:05.682Z,21.60
2018-06-28T23:52:34.078Z,21.50
2018-06-28T23:55:02.513Z,21.50
2018-06-28T23:57:30.903Z,21.40
2018-06-28T23:59:59.290Z,21.50
